sensor_id;sensor_type;location;lat;lon;timestamp;temperature;humidity
38973;DHT22;25333;50.762;4.470;2023-04-25T00:02:18;8.70;99.90
38973;DHT22;25333;50.762;4.470;2023-04-25T00:04:44;8.60;99.90
38973;DHT22;25333;50.762;4.470;2023-04-25T00:07:10;8.60;99.90
38973;DHT22;25333;50.762;4.470;2023-04-25T00:09:36;8.70;99.90
38973;DHT22;25333;50.762;4.470;2023-04-25T00:12:02;8.70;99.90
38973;DHT22;25333;50.762;4.470;2023-04-25T00:14:29;8.70;99.90
38973;DHT22;25333;50.762;4.470;2023-04-25T00:16:54;8.80;99.90
38973;DHT22;25333;50.762;4.470;2023-04-25T00:19:20;8.80;99.90
38973;DHT22;25333;50.762;4.470;2023-04-25T00:21:46;8.80;99.90
38973;DHT22;25333;50.762;4.470;2023-04-25T00:24:12;8.80;99.90
38973;DHT22;25333;50.762;4.470;2023-04-25T00:26:38;8.70;99.90
38973;DHT22;25333;50.762;4.470;2023-04-25T00:29:04;8.70;99.90
38973;DHT22;25333;50.762;4.470;2023-04-25T00:31:30;8.70;99.90
38973;DHT22;25333;50.762;4.470;2023-04-25T00:33:56;8.70;99.90
38973;DHT22;25333;50.762;4.470;2023-04-25T00:36:21;8.80;99.90
38973;DHT22;25333;50.762;4.470;2023-04-25T00:38:47;8.80;99.90
38973;DHT22;25333;50.762;4.470;2023-04-25T00:41:16;8.80;99.90
38973;DHT22;25333;50.762;4.470;2023-04-25T00:43:41;8.70;99.90
38973;DHT22;25333;50.762;4.470;2023-04-25T00:46:07;8.70;99.90
38973;DHT22;25333;50.762;4.470;2023-04-25T00:48:33;8.60;99.90
38973;DHT22;25333;50.762;4.470;2023-04-25T00:50:59;8.70;99.90
38973;DHT22;25333;50.762;4.470;2023-04-25T00:53:27;8.60;99.90
38973;DHT22;25333;50.762;4.470;2023-04-25T00:55:53;8.70;99.90
38973;DHT22;25333;50.762;4.470;2023-04-25T00:58:20;8.70;99.90
38973;DHT22;25333;50.762;4.470;2023-04-25T01:00:48;8.70;99.90
38973;DHT22;25333;50.762;4.470;2023-04-25T01:03:17;8.80;99.90
38973;DHT22;25333;50.762;4.470;2023-04-25T01:05:45;8.80;99.90
38973;DHT22;25333;50.762;4.470;2023-04-25T01:08:11;8.80;99.90
38973;DHT22;25333;50.762;4.470;2023-04-25T01:10:36;8.80;99.90
38973;DHT22;25333;50.762;4.470;2023-04-25T01:13:03;8.80;99.90
38973;DHT22;25333;50.762;4.470;2023-04-25T01:15:28;8.80;99.90
38973;DHT22;25333;50.762;4.470;2023-04-25T01:17:55;8.80;99.90
38973;DHT22;25333;50.762;4.470;2023-04-25T01:20:24;8.80;99.90
38973;DHT22;25333;50.762;4.470;2023-04-25T01:22:52;8.80;99.90
38973;DHT22;25333;50.762;4.470;2023-04-25T01:25:19;8.80;99.90
38973;DHT22;25333;50.762;4.470;2023-04-25T01:27:45;8.90;99.90
38973;DHT22;25333;50.762;4.470;2023-04-25T01:30:11;8.90;99.90
38973;DHT22;25333;50.762;4.470;2023-04-25T01:32:37;8.90;99.90
38973;DHT22;25333;50.762;4.470;2023-04-25T01:35:08;8.90;99.90
38973;DHT22;25333;50.762;4.470;2023-04-25T01:37:41;8.90;99.90
38973;DHT22;25333;50.762;4.470;2023-04-25T01:40:09;8.90;99.90
38973;DHT22;25333;50.762;4.470;2023-04-25T01:42:37;8.80;99.90
38973;DHT22;25333;50.762;4.470;2023-04-25T01:45:03;8.80;99.90
38973;DHT22;25333;50.762;4.470;2023-04-25T01:47:29;8.60;99.90
38973;DHT22;25333;50.762;4.470;2023-04-25T01:49:55;8.60;99.90
38973;DHT22;25333;50.762;4.470;2023-04-25T01:52:20;8.60;99.90
38973;DHT22;25333;50.762;4.470;2023-04-25T01:54:47;8.60;99.90
38973;DHT22;25333;50.762;4.470;2023-04-25T01:57:13;8.70;99.90
38973;DHT22;25333;50.762;4.470;2023-04-25T01:59:39;8.60;99.90
38973;DHT22;25333;50.762;4.470;2023-04-25T02:02:06;8.70;99.90
38973;DHT22;25333;50.762;4.470;2023-04-25T02:04:32;8.70;99.90
38973;DHT22;25333;50.762;4.470;2023-04-25T02:06:58;8.70;99.90
38973;DHT22;25333;50.762;4.470;2023-04-25T02:09:23;8.70;99.90
38973;DHT22;25333;50.762;4.470;2023-04-25T02:11:49;8.70;99.90
38973;DHT22;25333;50.762;4.470;2023-04-25T02:14:15;8.70;99.90
38973;DHT22;25333;50.762;4.470;2023-04-25T02:16:41;8.70;99.90
38973;DHT22;25333;50.762;4.470;2023-04-25T02:19:09;8.70;99.90
38973;DHT22;25333;50.762;4.470;2023-04-25T02:21:36;8.50;99.90
38973;DHT22;25333;50.762;4.470;2023-04-25T02:24:02;8.50;99.90
38973;DHT22;25333;50.762;4.470;2023-04-25T02:26:28;8.50;99.90
38973;DHT22;25333;50.762;4.470;2023-04-25T02:28:54;8.50;99.90
38973;DHT22;25333;50.762;4.470;2023-04-25T02:31:20;8.40;99.90
38973;DHT22;25333;50.762;4.470;2023-04-25T02:33:47;8.40;99.90
38973;DHT22;25333;50.762;4.470;2023-04-25T02:36:12;8.40;99.90
38973;DHT22;25333;50.762;4.470;2023-04-25T02:38:38;8.40;99.90
38973;DHT22;25333;50.762;4.470;2023-04-25T02:41:04;8.40;99.90
38973;DHT22;25333;50.762;4.470;2023-04-25T02:43:30;8.30;99.90
38973;DHT22;25333;50.762;4.470;2023-04-25T02:45:56;8.20;99.90
38973;DHT22;25333;50.762;4.470;2023-04-25T02:48:21;8.30;99.90
38973;DHT22;25333;50.762;4.470;2023-04-25T02:50:47;8.20;99.90
38973;DHT22;25333;50.762;4.470;2023-04-25T02:53:13;8.20;99.90
38973;DHT22;25333;50.762;4.470;2023-04-25T02:55:38;8.20;99.90
38973;DHT22;25333;50.762;4.470;2023-04-25T02:58:04;8.20;99.90
38973;DHT22;25333;50.762;4.470;2023-04-25T03:00:30;8.20;99.90
38973;DHT22;25333;50.762;4.470;2023-04-25T03:02:56;8.20;99.90
38973;DHT22;25333;50.762;4.470;2023-04-25T03:05:22;8.30;99.90
38973;DHT22;25333;50.762;4.470;2023-04-25T03:07:47;8.40;99.90
38973;DHT22;25333;50.762;4.470;2023-04-25T03:10:13;8.30;99.90
38973;DHT22;25333;50.762;4.470;2023-04-25T03:12:38;8.20;99.90
38973;DHT22;25333;50.762;4.470;2023-04-25T03:15:05;8.20;99.90
38973;DHT22;25333;50.762;4.470;2023-04-25T03:17:31;8.00;99.90
38973;DHT22;25333;50.762;4.470;2023-04-25T03:19:57;8.10;99.90
38973;DHT22;25333;50.762;4.470;2023-04-25T03:22:23;8.20;99.90
38973;DHT22;25333;50.762;4.470;2023-04-25T03:24:49;8.20;99.90
38973;DHT22;25333;50.762;4.470;2023-04-25T03:27:15;8.20;99.90
38973;DHT22;25333;50.762;4.470;2023-04-25T03:29:41;8.30;99.90
38973;DHT22;25333;50.762;4.470;2023-04-25T03:32:06;8.40;99.90
38973;DHT22;25333;50.762;4.470;2023-04-25T03:34:32;8.30;99.90
38973;DHT22;25333;50.762;4.470;2023-04-25T03:36:58;8.30;99.90
38973;DHT22;25333;50.762;4.470;2023-04-25T03:39:23;8.30;99.90
38973;DHT22;25333;50.762;4.470;2023-04-25T03:41:49;8.30;99.90
38973;DHT22;25333;50.762;4.470;2023-04-25T03:44:15;8.20;99.90
38973;DHT22;25333;50.762;4.470;2023-04-25T03:46:40;8.10;99.90
38973;DHT22;25333;50.762;4.470;2023-04-25T03:49:06;8.20;99.90
38973;DHT22;25333;50.762;4.470;2023-04-25T03:51:32;8.30;99.90
38973;DHT22;25333;50.762;4.470;2023-04-25T03:53:58;8.20;99.90
38973;DHT22;25333;50.762;4.470;2023-04-25T03:56:23;8.10;99.90
38973;DHT22;25333;50.762;4.470;2023-04-25T03:58:49;7.90;99.90
38973;DHT22;25333;50.762;4.470;2023-04-25T04:01:15;8.00;99.90
38973;DHT22;25333;50.762;4.470;2023-04-25T04:03:40;7.90;99.90
38973;DHT22;25333;50.762;4.470;2023-04-25T04:06:07;8.00;99.90
38973;DHT22;25333;50.762;4.470;2023-04-25T04:08:33;8.00;99.90
38973;DHT22;25333;50.762;4.470;2023-04-25T04:10:59;8.10;99.90
38973;DHT22;25333;50.762;4.470;2023-04-25T04:13:28;8.10;99.90
38973;DHT22;25333;50.762;4.470;2023-04-25T04:15:54;8.10;99.90
38973;DHT22;25333;50.762;4.470;2023-04-25T04:18:21;8.10;99.90
38973;DHT22;25333;50.762;4.470;2023-04-25T04:20:47;7.80;99.90
38973;DHT22;25333;50.762;4.470;2023-04-25T04:23:13;7.60;99.90
38973;DHT22;25333;50.762;4.470;2023-04-25T04:25:39;7.50;99.90
38973;DHT22;25333;50.762;4.470;2023-04-25T04:28:05;7.50;99.90
38973;DHT22;25333;50.762;4.470;2023-04-25T04:30:32;7.40;99.90
38973;DHT22;25333;50.762;4.470;2023-04-25T04:33:01;7.50;99.90
38973;DHT22;25333;50.762;4.470;2023-04-25T04:35:27;7.50;99.90
38973;DHT22;25333;50.762;4.470;2023-04-25T04:37:53;7.50;99.90
38973;DHT22;25333;50.762;4.470;2023-04-25T04:40:20;7.50;99.90
38973;DHT22;25333;50.762;4.470;2023-04-25T04:42:47;7.60;99.90
38973;DHT22;25333;50.762;4.470;2023-04-25T04:45:13;7.70;99.90
38973;DHT22;25333;50.762;4.470;2023-04-25T04:47:39;7.60;99.90
38973;DHT22;25333;50.762;4.470;2023-04-25T04:50:09;7.60;99.90
38973;DHT22;25333;50.762;4.470;2023-04-25T04:52:38;7.60;99.90
38973;DHT22;25333;50.762;4.470;2023-04-25T04:55:04;7.70;99.90
38973;DHT22;25333;50.762;4.470;2023-04-25T04:57:31;7.60;99.90
38973;DHT22;25333;50.762;4.470;2023-04-25T04:59:58;7.50;99.90
38973;DHT22;25333;50.762;4.470;2023-04-25T05:02:24;7.50;99.90
38973;DHT22;25333;50.762;4.470;2023-04-25T05:04:50;7.40;99.90
38973;DHT22;25333;50.762;4.470;2023-04-25T05:07:17;7.50;99.90
38973;DHT22;25333;50.762;4.470;2023-04-25T05:09:43;7.50;99.90
38973;DHT22;25333;50.762;4.470;2023-04-25T05:12:08;7.60;99.90
38973;DHT22;25333;50.762;4.470;2023-04-25T05:14:34;7.60;99.90
38973;DHT22;25333;50.762;4.470;2023-04-25T05:17:00;7.60;99.90
38973;DHT22;25333;50.762;4.470;2023-04-25T05:19:26;7.50;99.90
38973;DHT22;25333;50.762;4.470;2023-04-25T05:21:52;7.60;99.90
38973;DHT22;25333;50.762;4.470;2023-04-25T05:24:17;7.50;99.90
38973;DHT22;25333;50.762;4.470;2023-04-25T05:26:43;7.50;99.90
38973;DHT22;25333;50.762;4.470;2023-04-25T05:29:09;7.50;99.90
38973;DHT22;25333;50.762;4.470;2023-04-25T05:31:36;7.60;99.90
38973;DHT22;25333;50.762;4.470;2023-04-25T05:34:02;7.60;99.90
38973;DHT22;25333;50.762;4.470;2023-04-25T05:36:27;7.50;99.90
38973;DHT22;25333;50.762;4.470;2023-04-25T05:38:53;7.50;99.90
38973;DHT22;25333;50.762;4.470;2023-04-25T05:41:19;7.40;99.90
38973;DHT22;25333;50.762;4.470;2023-04-25T05:43:45;7.30;99.90
38973;DHT22;25333;50.762;4.470;2023-04-25T05:46:12;7.30;99.90
38973;DHT22;25333;50.762;4.470;2023-04-25T05:48:40;7.30;99.90
38973;DHT22;25333;50.762;4.470;2023-04-25T05:51:05;7.30;99.90
38973;DHT22;25333;50.762;4.470;2023-04-25T05:53:31;7.20;99.90
38973;DHT22;25333;50.762;4.470;2023-04-25T05:55:56;7.30;99.90
38973;DHT22;25333;50.762;4.470;2023-04-25T05:58:22;7.30;99.90
38973;DHT22;25333;50.762;4.470;2023-04-25T06:00:48;7.30;99.90
38973;DHT22;25333;50.762;4.470;2023-04-25T06:03:14;7.40;99.90
38973;DHT22;25333;50.762;4.470;2023-04-25T06:05:41;7.50;99.90
38973;DHT22;25333;50.762;4.470;2023-04-25T06:08:07;7.50;99.90
38973;DHT22;25333;50.762;4.470;2023-04-25T06:10:33;7.40;99.90
38973;DHT22;25333;50.762;4.470;2023-04-25T06:12:59;7.50;99.90
38973;DHT22;25333;50.762;4.470;2023-04-25T06:15:25;7.50;99.90
38973;DHT22;25333;50.762;4.470;2023-04-25T06:17:50;7.50;99.90
38973;DHT22;25333;50.762;4.470;2023-04-25T06:20:16;7.50;99.90
38973;DHT22;25333;50.762;4.470;2023-04-25T06:22:42;7.60;99.90
38973;DHT22;25333;50.762;4.470;2023-04-25T06:25:08;7.60;99.90
38973;DHT22;25333;50.762;4.470;2023-04-25T06:27:34;7.60;99.90
38973;DHT22;25333;50.762;4.470;2023-04-25T06:29:59;7.60;99.90
38973;DHT22;25333;50.762;4.470;2023-04-25T06:32:25;7.70;99.90
38973;DHT22;25333;50.762;4.470;2023-04-25T06:34:53;7.80;99.90
38973;DHT22;25333;50.762;4.470;2023-04-25T06:37:18;7.80;99.90
38973;DHT22;25333;50.762;4.470;2023-04-25T06:39:44;7.90;99.90
38973;DHT22;25333;50.762;4.470;2023-04-25T06:42:10;7.70;99.90
38973;DHT22;25333;50.762;4.470;2023-04-25T06:44:36;7.70;99.90
38973;DHT22;25333;50.762;4.470;2023-04-25T06:47:02;7.60;99.90
38973;DHT22;25333;50.762;4.470;2023-04-25T06:49:27;7.50;99.90
38973;DHT22;25333;50.762;4.470;2023-04-25T06:51:53;7.50;99.90
38973;DHT22;25333;50.762;4.470;2023-04-25T06:54:19;7.60;99.90
38973;DHT22;25333;50.762;4.470;2023-04-25T06:56:45;7.70;99.90
38973;DHT22;25333;50.762;4.470;2023-04-25T06:59:10;7.80;99.90
38973;DHT22;25333;50.762;4.470;2023-04-25T07:01:36;7.80;99.90
38973;DHT22;25333;50.762;4.470;2023-04-25T07:04:01;7.60;99.90
38973;DHT22;25333;50.762;4.470;2023-04-25T07:06:27;7.40;99.90
38973;DHT22;25333;50.762;4.470;2023-04-25T07:08:53;7.30;99.90
38973;DHT22;25333;50.762;4.470;2023-04-25T07:11:19;7.40;99.90
38973;DHT22;25333;50.762;4.470;2023-04-25T07:13:45;7.60;99.90
38973;DHT22;25333;50.762;4.470;2023-04-25T07:16:11;7.80;99.90
38973;DHT22;25333;50.762;4.470;2023-04-25T07:18:36;7.90;99.90
38973;DHT22;25333;50.762;4.470;2023-04-25T07:21:02;7.90;99.90
38973;DHT22;25333;50.762;4.470;2023-04-25T07:23:28;7.80;99.90
38973;DHT22;25333;50.762;4.470;2023-04-25T07:25:54;7.70;99.90
38973;DHT22;25333;50.762;4.470;2023-04-25T07:28:19;7.70;99.90
38973;DHT22;25333;50.762;4.470;2023-04-25T07:30:45;7.90;99.90
38973;DHT22;25333;50.762;4.470;2023-04-25T07:33:11;8.00;99.90
38973;DHT22;25333;50.762;4.470;2023-04-25T07:35:37;8.00;99.90
38973;DHT22;25333;50.762;4.470;2023-04-25T07:38:03;8.10;99.90
38973;DHT22;25333;50.762;4.470;2023-04-25T07:40:29;8.00;99.90
38973;DHT22;25333;50.762;4.470;2023-04-25T07:42:55;8.00;99.90
38973;DHT22;25333;50.762;4.470;2023-04-25T07:45:21;8.10;99.90
38973;DHT22;25333;50.762;4.470;2023-04-25T07:47:46;8.20;99.90
38973;DHT22;25333;50.762;4.470;2023-04-25T07:50:12;8.10;99.90
38973;DHT22;25333;50.762;4.470;2023-04-25T07:52:38;8.10;99.90
38973;DHT22;25333;50.762;4.470;2023-04-25T07:55:04;8.10;99.90
38973;DHT22;25333;50.762;4.470;2023-04-25T07:57:29;8.20;99.90
38973;DHT22;25333;50.762;4.470;2023-04-25T07:59:55;8.20;99.90
38973;DHT22;25333;50.762;4.470;2023-04-25T08:02:21;8.20;99.90
38973;DHT22;25333;50.762;4.470;2023-04-25T08:04:47;8.10;99.90
38973;DHT22;25333;50.762;4.470;2023-04-25T08:07:14;7.90;99.90
38973;DHT22;25333;50.762;4.470;2023-04-25T08:09:40;8.00;99.90
38973;DHT22;25333;50.762;4.470;2023-04-25T08:12:06;8.00;99.90
38973;DHT22;25333;50.762;4.470;2023-04-25T08:14:32;8.20;99.90
38973;DHT22;25333;50.762;4.470;2023-04-25T08:17:02;8.40;99.90
38973;DHT22;25333;50.762;4.470;2023-04-25T08:19:29;8.50;99.90
38973;DHT22;25333;50.762;4.470;2023-04-25T08:21:56;8.60;99.90
38973;DHT22;25333;50.762;4.470;2023-04-25T08:24:22;8.70;99.90
38973;DHT22;25333;50.762;4.470;2023-04-25T08:26:48;8.90;99.90
38973;DHT22;25333;50.762;4.470;2023-04-25T08:29:14;8.90;99.90
38973;DHT22;25333;50.762;4.470;2023-04-25T08:31:40;9.00;99.90
38973;DHT22;25333;50.762;4.470;2023-04-25T08:34:06;8.80;99.90
38973;DHT22;25333;50.762;4.470;2023-04-25T08:36:31;8.80;99.90
38973;DHT22;25333;50.762;4.470;2023-04-25T08:38:58;8.90;99.90
38973;DHT22;25333;50.762;4.470;2023-04-25T08:41:24;8.90;99.90
38973;DHT22;25333;50.762;4.470;2023-04-25T08:43:51;9.10;99.90
38973;DHT22;25333;50.762;4.470;2023-04-25T08:46:19;9.10;99.90
38973;DHT22;25333;50.762;4.470;2023-04-25T08:48:46;9.20;99.90
38973;DHT22;25333;50.762;4.470;2023-04-25T08:51:20;9.20;99.90
38973;DHT22;25333;50.762;4.470;2023-04-25T08:53:49;9.20;99.90
38973;DHT22;25333;50.762;4.470;2023-04-25T08:56:16;9.30;99.90
38973;DHT22;25333;50.762;4.470;2023-04-25T08:58:51;9.40;99.90
38973;DHT22;25333;50.762;4.470;2023-04-25T09:01:18;9.50;99.90
38973;DHT22;25333;50.762;4.470;2023-04-25T09:03:44;9.50;99.90
38973;DHT22;25333;50.762;4.470;2023-04-25T09:06:13;9.30;99.90
38973;DHT22;25333;50.762;4.470;2023-04-25T09:08:39;9.30;99.90
38973;DHT22;25333;50.762;4.470;2023-04-25T09:11:06;9.20;99.90
38973;DHT22;25333;50.762;4.470;2023-04-25T09:13:32;9.30;99.90
38973;DHT22;25333;50.762;4.470;2023-04-25T09:15:58;9.30;99.90
38973;DHT22;25333;50.762;4.470;2023-04-25T09:18:29;9.60;99.90
38973;DHT22;25333;50.762;4.470;2023-04-25T09:20:56;9.90;99.90
38973;DHT22;25333;50.762;4.470;2023-04-25T09:23:23;10.00;99.90
38973;DHT22;25333;50.762;4.470;2023-04-25T09:25:51;10.00;99.60
38973;DHT22;25333;50.762;4.470;2023-04-25T09:28:23;9.90;99.90
38973;DHT22;25333;50.762;4.470;2023-04-25T09:30:55;10.10;99.90
38973;DHT22;25333;50.762;4.470;2023-04-25T09:33:33;10.20;99.90
38973;DHT22;25333;50.762;4.470;2023-04-25T09:36:08;10.00;99.90
38973;DHT22;25333;50.762;4.470;2023-04-25T09:38:42;9.80;99.90
38973;DHT22;25333;50.762;4.470;2023-04-25T09:41:09;9.80;99.90
38973;DHT22;25333;50.762;4.470;2023-04-25T09:43:36;9.80;99.90
38973;DHT22;25333;50.762;4.470;2023-04-25T09:46:02;9.80;99.90
38973;DHT22;25333;50.762;4.470;2023-04-25T09:48:29;9.90;99.90
38973;DHT22;25333;50.762;4.470;2023-04-25T09:51:04;10.00;99.90
38973;DHT22;25333;50.762;4.470;2023-04-25T09:53:32;9.90;99.90
38973;DHT22;25333;50.762;4.470;2023-04-25T09:55:59;9.90;99.90
38973;DHT22;25333;50.762;4.470;2023-04-25T09:58:29;10.00;99.90
38973;DHT22;25333;50.762;4.470;2023-04-25T10:01:09;9.80;98.20
38973;DHT22;25333;50.762;4.470;2023-04-25T10:03:37;9.70;99.90
38973;DHT22;25333;50.762;4.470;2023-04-25T10:06:08;9.80;99.90
38973;DHT22;25333;50.762;4.470;2023-04-25T10:08:38;9.70;99.90
38973;DHT22;25333;50.762;4.470;2023-04-25T10:11:06;9.80;99.90
38973;DHT22;25333;50.762;4.470;2023-04-25T10:13:33;9.90;99.90
38973;DHT22;25333;50.762;4.470;2023-04-25T10:16:00;9.80;98.90
38973;DHT22;25333;50.762;4.470;2023-04-25T10:18:27;9.80;99.90
38973;DHT22;25333;50.762;4.470;2023-04-25T10:20:59;10.00;99.90
38973;DHT22;25333;50.762;4.470;2023-04-25T10:23:26;10.00;99.80
38973;DHT22;25333;50.762;4.470;2023-04-25T10:25:53;10.20;98.20
38973;DHT22;25333;50.762;4.470;2023-04-25T10:28:19;10.60;99.90
38973;DHT22;25333;50.762;4.470;2023-04-25T10:31:02;11.10;99.90
38973;DHT22;25333;50.762;4.470;2023-04-25T10:33:38;11.10;98.00
38973;DHT22;25333;50.762;4.470;2023-04-25T10:38:36;10.80;99.00
38973;DHT22;25333;50.762;4.470;2023-04-25T10:41:07;10.80;98.20
38973;DHT22;25333;50.762;4.470;2023-04-25T10:43:44;10.50;98.20
38973;DHT22;25333;50.762;4.470;2023-04-25T10:46:24;10.50;98.80
38973;DHT22;25333;50.762;4.470;2023-04-25T10:48:52;10.40;98.00
38973;DHT22;25333;50.762;4.470;2023-04-25T10:51:28;10.50;98.60
38973;DHT22;25333;50.762;4.470;2023-04-25T10:53:59;10.50;94.50
38973;DHT22;25333;50.762;4.470;2023-04-25T10:56:33;11.00;99.90
38973;DHT22;25333;50.762;4.470;2023-04-25T10:59:10;11.50;99.10
38973;DHT22;25333;50.762;4.470;2023-04-25T11:01:47;11.80;95.70
38973;DHT22;25333;50.762;4.470;2023-04-25T11:07:02;11.40;95.80
38973;DHT22;25333;50.762;4.470;2023-04-25T11:09:33;10.80;93.20
38973;DHT22;25333;50.762;4.470;2023-04-25T11:12:00;10.70;95.40
38973;DHT22;25333;50.762;4.470;2023-04-25T11:14:26;10.60;94.60
38973;DHT22;25333;50.762;4.470;2023-04-25T11:16:53;10.80;96.70
38973;DHT22;25333;50.762;4.470;2023-04-25T11:19:21;10.80;93.70
38973;DHT22;25333;50.762;4.470;2023-04-25T11:21:46;10.70;96.10
38973;DHT22;25333;50.762;4.470;2023-04-25T11:24:12;10.80;96.40
38973;DHT22;25333;50.762;4.470;2023-04-25T11:26:38;10.80;96.50
38973;DHT22;25333;50.762;4.470;2023-04-25T11:29:03;10.90;97.10
38973;DHT22;25333;50.762;4.470;2023-04-25T11:31:30;10.90;96.30
38973;DHT22;25333;50.762;4.470;2023-04-25T11:33:59;10.60;93.20
38973;DHT22;25333;50.762;4.470;2023-04-25T11:36:25;10.40;94.90
38973;DHT22;25333;50.762;4.470;2023-04-25T11:38:52;10.40;96.30
38973;DHT22;25333;50.762;4.470;2023-04-25T11:41:19;10.40;97.30
38973;DHT22;25333;50.762;4.470;2023-04-25T11:43:45;10.30;97.20
38973;DHT22;25333;50.762;4.470;2023-04-25T11:46:11;10.00;97.70
38973;DHT22;25333;50.762;4.470;2023-04-25T11:48:39;10.10;99.60
38973;DHT22;25333;50.762;4.470;2023-04-25T11:51:05;10.10;99.30
38973;DHT22;25333;50.762;4.470;2023-04-25T11:53:30;10.20;99.90
38973;DHT22;25333;50.762;4.470;2023-04-25T11:55:56;10.20;98.00
38973;DHT22;25333;50.762;4.470;2023-04-25T11:58:22;10.30;97.20
38973;DHT22;25333;50.762;4.470;2023-04-25T12:00:48;10.30;97.20
38973;DHT22;25333;50.762;4.470;2023-04-25T12:03:14;10.50;99.10
38973;DHT22;25333;50.762;4.470;2023-04-25T12:05:40;10.60;97.90
38973;DHT22;25333;50.762;4.470;2023-04-25T12:08:16;10.50;96.20
38973;DHT22;25333;50.762;4.470;2023-04-25T12:10:44;10.50;97.50
38973;DHT22;25333;50.762;4.470;2023-04-25T12:13:28;10.80;98.50
38973;DHT22;25333;50.762;4.470;2023-04-25T12:15:57;11.00;95.30
38973;DHT22;25333;50.762;4.470;2023-04-25T12:18:26;10.80;95.90
38973;DHT22;25333;50.762;4.470;2023-04-25T12:20:54;11.10;95.90
38973;DHT22;25333;50.762;4.470;2023-04-25T12:23:29;11.30;96.00
38973;DHT22;25333;50.762;4.470;2023-04-25T12:25:56;11.40;94.20
38973;DHT22;25333;50.762;4.470;2023-04-25T12:28:24;11.40;93.40
38973;DHT22;25333;50.762;4.470;2023-04-25T12:31:04;11.50;94.90
38973;DHT22;25333;50.762;4.470;2023-04-25T12:33:31;11.80;95.40
38973;DHT22;25333;50.762;4.470;2023-04-25T12:36:00;11.80;93.80
38973;DHT22;25333;50.762;4.470;2023-04-25T12:38:36;11.90;94.90
38973;DHT22;25333;50.762;4.470;2023-04-25T12:41:02;11.80;92.60
38973;DHT22;25333;50.762;4.470;2023-04-25T12:43:28;11.80;92.70
38973;DHT22;25333;50.762;4.470;2023-04-25T12:45:55;11.50;91.10
38973;DHT22;25333;50.762;4.470;2023-04-25T12:48:21;11.30;92.20
38973;DHT22;25333;50.762;4.470;2023-04-25T12:50:47;11.40;94.50
38973;DHT22;25333;50.762;4.470;2023-04-25T12:53:20;11.50;93.40
38973;DHT22;25333;50.762;4.470;2023-04-25T12:55:47;11.60;94.90
38973;DHT22;25333;50.762;4.470;2023-04-25T12:58:16;11.70;93.40
38973;DHT22;25333;50.762;4.470;2023-04-25T13:00:43;11.50;93.00
38973;DHT22;25333;50.762;4.470;2023-04-25T13:03:09;11.50;93.60
38973;DHT22;25333;50.762;4.470;2023-04-25T13:05:36;11.40;92.80
38973;DHT22;25333;50.762;4.470;2023-04-25T13:08:02;11.30;93.20
38973;DHT22;25333;50.762;4.470;2023-04-25T13:10:28;11.30;92.50
38973;DHT22;25333;50.762;4.470;2023-04-25T13:12:54;11.20;92.60
38973;DHT22;25333;50.762;4.470;2023-04-25T13:15:20;11.20;92.80
38973;DHT22;25333;50.762;4.470;2023-04-25T13:17:47;11.10;91.40
38973;DHT22;25333;50.762;4.470;2023-04-25T13:20:13;10.90;92.50
38973;DHT22;25333;50.762;4.470;2023-04-25T13:22:40;11.00;92.10
38973;DHT22;25333;50.762;4.470;2023-04-25T13:25:07;11.00;90.20
38973;DHT22;25333;50.762;4.470;2023-04-25T13:27:34;10.90;92.80
38973;DHT22;25333;50.762;4.470;2023-04-25T13:30:02;10.90;92.00
38973;DHT22;25333;50.762;4.470;2023-04-25T13:32:33;10.90;93.80
38973;DHT22;25333;50.762;4.470;2023-04-25T13:34:59;11.00;94.00
38973;DHT22;25333;50.762;4.470;2023-04-25T13:37:26;11.00;94.30
38973;DHT22;25333;50.762;4.470;2023-04-25T13:39:52;11.10;95.60
38973;DHT22;25333;50.762;4.470;2023-04-25T13:42:19;11.10;93.10
38973;DHT22;25333;50.762;4.470;2023-04-25T13:44:52;11.00;94.60
38973;DHT22;25333;50.762;4.470;2023-04-25T13:47:22;10.90;93.60
38973;DHT22;25333;50.762;4.470;2023-04-25T13:49:56;11.00;95.00
38973;DHT22;25333;50.762;4.470;2023-04-25T13:52:23;10.80;94.40
38973;DHT22;25333;50.762;4.470;2023-04-25T13:55:06;10.80;93.90
38973;DHT22;25333;50.762;4.470;2023-04-25T13:57:33;10.90;93.80
38973;DHT22;25333;50.762;4.470;2023-04-25T13:59:59;11.10;94.70
38973;DHT22;25333;50.762;4.470;2023-04-25T14:02:25;11.30;93.70
38973;DHT22;25333;50.762;4.470;2023-04-25T14:04:51;11.40;92.70
38973;DHT22;25333;50.762;4.470;2023-04-25T14:07:18;11.50;92.30
38973;DHT22;25333;50.762;4.470;2023-04-25T14:09:44;11.60;92.90
38973;DHT22;25333;50.762;4.470;2023-04-25T14:12:10;11.50;90.30
38973;DHT22;25333;50.762;4.470;2023-04-25T14:14:36;11.40;91.60
38973;DHT22;25333;50.762;4.470;2023-04-25T14:17:03;11.50;91.60
38973;DHT22;25333;50.762;4.470;2023-04-25T14:19:29;11.40;91.20
38973;DHT22;25333;50.762;4.470;2023-04-25T14:21:55;11.30;90.90
38973;DHT22;25333;50.762;4.470;2023-04-25T14:24:21;11.30;91.70
38973;DHT22;25333;50.762;4.470;2023-04-25T14:26:46;11.30;91.90
38973;DHT22;25333;50.762;4.470;2023-04-25T14:29:12;11.30;92.70
38973;DHT22;25333;50.762;4.470;2023-04-25T14:31:39;11.40;93.30
38973;DHT22;25333;50.762;4.470;2023-04-25T14:34:05;11.30;92.60
38973;DHT22;25333;50.762;4.470;2023-04-25T14:36:32;11.30;93.20
38973;DHT22;25333;50.762;4.470;2023-04-25T14:38:58;11.30;92.90
38973;DHT22;25333;50.762;4.470;2023-04-25T14:41:24;11.30;94.10
38973;DHT22;25333;50.762;4.470;2023-04-25T14:43:51;11.30;93.10
38973;DHT22;25333;50.762;4.470;2023-04-25T14:46:18;11.30;92.30
38973;DHT22;25333;50.762;4.470;2023-04-25T14:48:45;11.30;91.40
38973;DHT22;25333;50.762;4.470;2023-04-25T14:51:11;11.30;92.40
38973;DHT22;25333;50.762;4.470;2023-04-25T14:53:37;11.40;91.20
38973;DHT22;25333;50.762;4.470;2023-04-25T14:56:02;11.60;92.10
38973;DHT22;25333;50.762;4.470;2023-04-25T14:58:28;11.50;90.40
38973;DHT22;25333;50.762;4.470;2023-04-25T15:00:54;11.50;89.20
38973;DHT22;25333;50.762;4.470;2023-04-25T15:03:20;11.40;90.60
38973;DHT22;25333;50.762;4.470;2023-04-25T15:05:46;11.40;88.40
38973;DHT22;25333;50.762;4.470;2023-04-25T15:08:14;11.40;90.00
38973;DHT22;25333;50.762;4.470;2023-04-25T15:10:41;11.50;90.10
38973;DHT22;25333;50.762;4.470;2023-04-25T15:13:07;11.50;88.30
38973;DHT22;25333;50.762;4.470;2023-04-25T15:15:33;11.40;86.70
38973;DHT22;25333;50.762;4.470;2023-04-25T15:18:06;11.40;89.10
38973;DHT22;25333;50.762;4.470;2023-04-25T15:20:34;11.50;90.90
38973;DHT22;25333;50.762;4.470;2023-04-25T15:23:08;11.30;87.80
38973;DHT22;25333;50.762;4.470;2023-04-25T15:25:33;11.30;89.90
38973;DHT22;25333;50.762;4.470;2023-04-25T15:27:59;11.30;91.60
38973;DHT22;25333;50.762;4.470;2023-04-25T15:30:28;11.30;91.50
38973;DHT22;25333;50.762;4.470;2023-04-25T15:32:54;11.30;91.40
38973;DHT22;25333;50.762;4.470;2023-04-25T15:35:19;11.20;91.60
38973;DHT22;25333;50.762;4.470;2023-04-25T15:37:45;11.30;91.40
38973;DHT22;25333;50.762;4.470;2023-04-25T15:40:15;11.20;91.40
38973;DHT22;25333;50.762;4.470;2023-04-25T15:43:14;11.10;90.50
38973;DHT22;25333;50.762;4.470;2023-04-25T15:46:08;11.10;91.20